FYS21KS LERS-LERS

Flight info

Callsign FYS21KS
Flight time 0h 21m
Altitude 8000
Route VFR
Aircraft DA42/L-SBDGRY/S

Departure

Time 2026-04-25 16:27
Airport Reus Airport (LERS)

Arrival

Time 2026-04-25 16:48
Airport Reus Airport (LERS)
Time Latitude Longitude Altitude Speed Heading
2026-04-25 16:21 41.14817 1.16042 234 ft 0 kts 339°
2026-04-25 16:24 41.14815 1.16031 234 ft 8 kts 180°
2026-04-25 16:24 41.14736 1.16108 234 ft 17 kts 88°
2026-04-25 16:24 41.14786 1.16276 235 ft 22 kts 69°
2026-04-25 16:25 41.14844 1.16476 235 ft 24 kts 69°
2026-04-25 16:25 41.14875 1.16584 235 ft 4 kts 65°
2026-04-25 16:25 41.14853 1.16660 235 ft 11 kts 161°
2026-04-25 16:25 41.14768 1.16700 235 ft 15 kts 178°
2026-04-25 16:26 41.14664 1.16466 234 ft 57 kts 252°
2026-04-25 16:26 41.14476 1.15921 387 ft 70 kts 239°
2026-04-25 16:26 41.14168 1.15414 581 ft 76 kts 174°
2026-04-25 16:26 41.14072 1.16058 757 ft 97 kts 73°
2026-04-25 16:27 41.14325 1.16920 886 ft 99 kts 75°
2026-04-25 16:27 41.14520 1.17795 980 ft 101 kts 76°
2026-04-25 16:27 41.14713 1.18663 983 ft 97 kts 82°
2026-04-25 16:27 41.14825 1.19513 923 ft 91 kts 84°
2026-04-25 16:28 41.14982 1.20296 819 ft 89 kts 56°
2026-04-25 16:28 41.15531 1.20422 692 ft 89 kts 314°
2026-04-25 16:28 41.15592 1.19698 576 ft 84 kts 246°
2026-04-25 16:28 41.15393 1.18934 414 ft 88 kts 245°
2026-04-25 16:29 41.15191 1.18247 278 ft 75 kts 243°
2026-04-25 16:29 41.15013 1.17641 239 ft 64 kts 243°
2026-04-25 16:29 41.14848 1.17090 313 ft 68 kts 243°
2026-04-25 16:29 41.14680 1.16491 456 ft 70 kts 242°
2026-04-25 16:30 41.14476 1.15869 661 ft 77 kts 234°
2026-04-25 16:30 41.14164 1.15266 907 ft 79 kts 204°
2026-04-25 16:30 41.13872 1.15737 993 ft 103 kts 69°
2026-04-25 16:30 41.14164 1.16619 1050 ft 104 kts 71°
2026-04-25 16:31 41.14425 1.17483 974 ft 98 kts 71°
2026-04-25 16:31 41.14680 1.18312 793 ft 91 kts 72°
2026-04-25 16:31 41.14906 1.19038 711 ft 83 kts 73°
2026-04-25 16:31 41.15084 1.19715 612 ft 71 kts 79°
2026-04-25 16:32 41.15233 1.20376 702 ft 79 kts 73°
2026-04-25 16:32 41.15658 1.20556 791 ft 90 kts 296°
2026-04-25 16:32 41.15619 1.19755 735 ft 82 kts 251°
2026-04-25 16:32 41.15451 1.19080 528 ft 74 kts 240°
2026-04-25 16:33 41.15252 1.18425 333 ft 72 kts 240°
2026-04-25 16:33 41.15070 1.17834 250 ft 65 kts 243°
2026-04-25 16:33 41.14908 1.17298 235 ft 73 kts 249°
2026-04-25 16:33 41.14734 1.16683 405 ft 73 kts 243°
2026-04-25 16:34 41.14540 1.16014 588 ft 80 kts 247°
2026-04-25 16:34 41.14292 1.15392 812 ft 80 kts 215°
2026-04-25 16:34 41.13835 1.15627 905 ft 93 kts 104°
2026-04-25 16:34 41.14026 1.16482 1000 ft 94 kts 74°
2026-04-25 16:35 41.14177 1.17319 935 ft 87 kts 87°
2026-04-25 16:35 41.14216 1.18099 925 ft 76 kts 89°
2026-04-25 16:35 41.14267 1.18784 838 ft 74 kts 84°
2026-04-25 16:35 41.14358 1.19449 811 ft 76 kts 84°
2026-04-25 16:36 41.14466 1.20199 817 ft 83 kts 81°
2026-04-25 16:36 41.14506 1.20450 806 ft 82 kts 79°
2026-04-25 16:36 41.14422 1.21491 802 ft 76 kts 167°
2026-04-25 16:36 41.13911 1.21308 813 ft 76 kts 221°
2026-04-25 16:37 41.13894 1.20609 732 ft 86 kts 282°
2026-04-25 16:37 41.13638 1.20297 713 ft 78 kts 118°
2026-04-25 16:37 41.13658 1.21071 854 ft 86 kts 84°
2026-04-25 16:37 41.13891 1.21845 841 ft 99 kts 65°
2026-04-25 16:38 41.14278 1.22533 901 ft 88 kts 46°
2026-04-25 16:38 41.14709 1.23044 983 ft 82 kts 38°
2026-04-25 16:38 41.15192 1.23398 1019 ft 84 kts 29°
2026-04-25 16:38 41.15699 1.23377 1069 ft 81 kts 309°
2026-04-25 16:39 41.15829 1.22598 944 ft 93 kts 274°
2026-04-25 16:39 41.15898 1.21860 809 ft 74 kts 272°
2026-04-25 16:39 41.15899 1.21152 773 ft 80 kts 260°
2026-04-25 16:39 41.15795 1.20418 692 ft 80 kts 251°
2026-04-25 16:40 41.15609 1.19726 608 ft 80 kts 244°
2026-04-25 16:40 41.15416 1.19044 465 ft 76 kts 243°
2026-04-25 16:40 41.15225 1.18381 322 ft 77 kts 244°
2026-04-25 16:40 41.15034 1.17721 250 ft 73 kts 244°
2026-04-25 16:41 41.14866 1.17161 235 ft 57 kts 254°
2026-04-25 16:41 41.14764 1.16799 236 ft 73 kts 245°
2026-04-25 16:41 41.14268 1.15432 626 ft 67 kts 214°
2026-04-25 16:42 41.13962 1.15680 739 ft 84 kts 78°
2026-04-25 16:42 41.14182 1.16525 771 ft 103 kts 69°
2026-04-25 16:42 41.14452 1.17403 830 ft 102 kts 73°
2026-04-25 16:42 41.14654 1.18250 805 ft 89 kts 82°
2026-04-25 16:43 41.14820 1.19007 672 ft 86 kts 77°
2026-04-25 16:43 41.15014 1.19741 669 ft 75 kts 73°
2026-04-25 16:43 41.15173 1.20430 763 ft 81 kts 78°
2026-04-25 16:43 41.15345 1.21106 893 ft 77 kts 75°
2026-04-25 16:44 41.15525 1.21764 979 ft 73 kts 68°
2026-04-25 16:44 41.15917 1.22073 1038 ft 84 kts 323°
2026-04-25 16:44 41.16050 1.21371 1067 ft 84 kts 258°
2026-04-25 16:44 41.15881 1.20635 916 ft 83 kts 244°
2026-04-25 16:45 41.15666 1.19968 732 ft 76 kts 244°
2026-04-25 16:45 41.15477 1.19257 580 ft 89 kts 243°
2026-04-25 16:45 41.15285 1.18523 392 ft 86 kts 241°
2026-04-25 16:45 41.15079 1.17855 245 ft 66 kts 238°
2026-04-25 16:46 41.14920 1.17340 235 ft 72 kts 250°
2026-04-25 16:46 41.14727 1.16690 397 ft 70 kts 240°
2026-04-25 16:46 41.14503 1.16088 587 ft 75 kts 234°
2026-04-25 16:46 41.14396 1.15910 648 ft 72 kts 214°
2026-04-25 16:47 41.14391 1.16698 729 ft 93 kts 67°
2026-04-25 16:47 41.14537 1.17502 794 ft 88 kts 81°
2026-04-25 16:47 41.14694 1.18307 794 ft 89 kts 73°
2026-04-25 16:47 41.14933 1.19013 668 ft 81 kts 50°
2026-04-25 16:48 41.15312 1.18766 534 ft 91 kts 259°
2026-04-25 16:48 41.15108 1.17956 252 ft 79 kts 242°
2026-04-25 16:48 41.14948 1.17425 237 ft 50 kts 248°
2026-04-25 16:48 41.14842 1.17062 235 ft 40 kts 242°
2026-04-25 16:49 41.14752 1.16756 235 ft 32 kts 249°
2026-04-25 16:49 41.14678 1.16518 235 ft 25 kts 246°
2026-04-25 16:49 41.14616 1.16301 233 ft 27 kts 249°
2026-04-25 16:49 41.14555 1.16093 233 ft 22 kts 245°
2026-04-25 16:50 41.14537 1.15909 232 ft 21 kts 316°
2026-04-25 16:50 41.14621 1.15859 234 ft 8 kts 337°
2026-04-25 16:50 41.14630 1.15853 234 ft 0 kts 336°